Time;durP1;ratioP1;P1;durP2;ratioP2;P2;SDS_P1;SDS_P2;PMS_P1;PMS_P2;Temp;Humidity;BMP_temperature;BMP_pressure;BME280_temperature;BME280_humidity;BME280_pressure;Samples;Min_cycle;Max_cycle;Signal;HPM_P1;HPM_P2
2023/05/18 00:01:39;;;;;;;12.18;2.97;;;9.10;91.50;;;;;;6241219;23;20075;-71
2023/05/18 00:04:06;;;;;;;5.43;1.93;;;9.00;91.70;;;;;;6213828;23;20004;-72
2023/05/18 00:06:32;;;;;;;8.10;2.60;;;9.00;91.80;;;;;;6240087;23;20027;-71
2023/05/18 00:08:58;;;;;;;5.20;1.90;;;9.00;91.80;;;;;;6240150;23;20075;-72
2023/05/18 00:11:23;;;;;;;9.50;2.30;;;9.00;91.90;;;;;;6240698;23;20062;-72
2023/05/18 00:13:49;;;;;;;5.13;2.30;;;8.90;92.10;;;;;;6241176;23;20015;-71
2023/05/18 00:16:14;;;;;;;6.85;2.58;;;8.90;92.20;;;;;;6240517;23;20008;-71
2023/05/18 00:18:40;;;;;;;9.13;2.33;;;8.90;92.40;;;;;;6240982;23;20068;-71
2023/05/18 00:21:07;;;;;;;13.13;2.60;;;8.80;92.40;;;;;;6240669;23;20000;-72
2023/05/18 00:23:33;;;;;;;7.50;2.03;;;8.80;92.50;;;;;;6242804;23;20331;-71
2023/05/18 00:26:00;;;;;;;6.30;2.28;;;8.80;92.60;;;;;;6242388;23;20018;-71
2023/05/18 00:28:27;;;;;;;14.32;2.58;;;8.70;92.60;;;;;;6242457;23;20065;-71
2023/05/18 00:30:53;;;;;;;5.13;2.10;;;8.70;92.80;;;;;;6243077;23;20006;-71
2023/05/18 00:33:18;;;;;;;11.77;2.42;;;8.70;92.80;;;;;;6242368;23;20483;-71
2023/05/18 00:35:44;;;;;;;8.80;1.95;;;8.60;92.90;;;;;;6242329;23;20084;-71
2023/05/18 00:38:11;;;;;;;10.45;2.50;;;8.60;92.90;;;;;;6242479;23;19996;-73
2023/05/18 00:40:38;;;;;;;4.53;2.13;;;8.60;93.00;;;;;;6242876;23;20126;-71
2023/05/18 00:43:04;;;;;;;7.38;1.65;;;8.60;93.20;;;;;;6242527;23;19992;-71
2023/05/18 00:45:29;;;;;;;10.20;2.13;;;8.50;93.20;;;;;;6215674;23;20011;-71
2023/05/18 00:47:55;;;;;;;5.53;2.42;;;8.50;93.40;;;;;;6242592;23;20000;-71
2023/05/18 00:50:21;;;;;;;8.60;2.17;;;8.50;93.40;;;;;;6241701;23;20326;-71
2023/05/18 00:52:46;;;;;;;10.40;2.83;;;8.50;93.50;;;;;;6242760;23;20035;-71
2023/05/18 00:55:13;;;;;;;8.57;2.60;;;8.50;93.70;;;;;;6215065;23;20012;-72
2023/05/18 00:57:40;;;;;;;9.47;2.70;;;8.50;93.80;;;;;;6242803;23;20000;-71
2023/05/18 01:00:09;;;;;;;5.80;2.20;;;8.40;93.80;;;;;;6242218;23;20003;-72
2023/05/18 01:02:35;;;;;;;6.10;2.38;;;8.40;93.90;;;;;;6242635;23;20326;-71
2023/05/18 01:05:02;;;;;;;7.87;2.93;;;8.40;94.00;;;;;;6241632;23;19996;-71
2023/05/18 01:07:32;;;;;;;7.23;2.50;;;8.40;94.10;;;;;;6242483;23;20011;-71
2023/05/18 01:09:58;;;;;;;11.63;2.80;;;8.40;94.20;;;;;;6215282;23;20291;-72
2023/05/18 01:12:40;;;;;;;9.97;2.63;;;8.40;94.30;;;;;;6242142;23;19992;-71
2023/05/18 01:15:18;;;;;;;6.77;2.73;;;8.40;94.50;;;;;;6242381;23;20295;-71
2023/05/18 01:18:20;;;;;;;6.10;2.33;;;8.30;94.60;;;;;;6242672;23;20008;-71
2023/05/18 01:20:48;;;;;;;6.63;2.53;;;8.30;95.00;;;;;;6242182;23;19996;-71
2023/05/18 01:23:43;;;;;;;9.80;2.47;;;8.30;94.70;;;;;;6242018;23;20070;-72
2023/05/18 01:26:14;;;;;;;9.40;3.50;;;8.30;94.90;;;;;;6241977;23;20105;-71
2023/05/18 01:28:44;;;;;;;9.67;3.70;;;8.20;94.90;;;;;;6242481;23;20031;-71
2023/05/18 01:31:11;;;;;;;9.07;2.83;;;8.20;95.10;;;;;;6241457;23;19997;-71
2023/05/18 01:33:37;;;;;;;6.80;2.77;;;8.20;95.20;;;;;;6241184;23;20004;-71
2023/05/18 01:36:03;;;;;;;6.93;2.03;;;8.10;95.40;;;;;;6241687;23;20125;-71
2023/05/18 01:38:28;;;;;;;9.37;2.87;;;8.10;95.50;;;;;;6241786;23;20390;-72
2023/05/18 01:41:12;;;;;;;12.37;3.60;;;8.10;95.60;;;;;;6214879;23;20422;-72
2023/05/18 01:43:51;;;;;;;10.45;2.67;;;8.10;95.70;;;;;;6242110;23;20318;-71
2023/05/18 01:46:28;;;;;;;10.53;3.13;;;8.10;95.80;;;;;;6241474;23;20418;-71
2023/05/18 01:49:04;;;;;;;5.60;2.63;;;8.10;96.00;;;;;;6214011;23;20414;-71
2023/05/18 01:51:35;;;;;;;10.37;2.87;;;8.10;96.10;;;;;;6241701;23;20030;-71
2023/05/18 01:54:06;;;;;;;9.80;3.27;;;8.00;96.20;;;;;;6241577;23;20032;-71
2023/05/18 01:56:33;;;;;;;9.47;4.00;;;8.00;96.30;;;;;;6241428;23;20491;-71
2023/05/18 01:58:59;;;;;;;10.67;3.27;;;8.00;96.50;;;;;;6214618;23;20000;-72
2023/05/18 02:01:25;;;;;;;9.47;3.50;;;8.00;96.60;;;;;;6241410;23;20008;-71
2023/05/18 02:03:50;;;;;;;8.50;2.50;;;8.00;96.80;;;;;;6241257;23;20000;-71
2023/05/18 02:06:16;;;;;;;6.67;3.03;;;8.00;96.80;;;;;;6241201;23;20070;-71
2023/05/18 02:08:42;;;;;;;6.57;3.00;;;7.90;96.90;;;;;;6214857;23;20008;-71
2023/05/18 02:11:08;;;;;;;9.90;2.77;;;7.90;97.00;;;;;;6241355;23;20437;-72
2023/05/18 02:13:34;;;;;;;10.50;2.73;;;7.90;97.10;;;;;;6214762;23;20008;-71
2023/05/18 02:15:59;;;;;;;9.07;2.43;;;7.90;97.20;;;;;;6241336;23;20010;-71
2023/05/18 02:18:27;;;;;;;9.63;3.10;;;7.90;97.20;;;;;;6239845;23;20050;-72
2023/05/18 02:20:59;;;;;;;11.40;3.37;;;7.90;97.30;;;;;;6238972;23;20007;-71
2023/05/18 02:23:26;;;;;;;12.07;3.23;;;7.90;97.50;;;;;;6239001;23;20299;-71
2023/05/18 02:25:54;;;;;;;14.37;3.43;;;7.80;97.60;;;;;;6239347;23;20019;-71
2023/05/18 02:28:22;;;;;;;6.73;2.47;;;7.80;97.60;;;;;;6238981;23;20002;-72
2023/05/18 02:30:48;;;;;;;7.67;3.10;;;7.80;97.80;;;;;;6240079;23;20008;-71
2023/05/18 02:33:14;;;;;;;9.30;2.20;;;7.80;97.80;;;;;;6238516;23;20359;-71
2023/05/18 02:35:42;;;;;;;8.73;3.03;;;7.80;97.90;;;;;;6240752;23;20008;-71
2023/05/18 02:38:07;;;;;;;8.43;3.10;;;7.80;97.90;;;;;;6241213;23;20004;-71
2023/05/18 02:40:33;;;;;;;8.00;2.83;;;7.80;98.00;;;;;;6241113;23;20275;-71
2023/05/18 02:42:58;;;;;;;9.00;3.17;;;7.70;98.00;;;;;;6241021;23;20071;-72
2023/05/18 02:45:24;;;;;;;5.57;3.30;;;7.70;98.20;;;;;;6240841;23;19996;-71
2023/05/18 02:47:50;;;;;;;8.50;3.67;;;7.70;98.40;;;;;;6214097;23;20000;-71
2023/05/18 02:50:15;;;;;;;6.90;2.83;;;7.70;98.40;;;;;;6213890;23;20384;-71
2023/05/18 02:52:41;;;;;;;9.17;3.57;;;7.70;98.40;;;;;;6241476;23;20358;-71
2023/05/18 02:55:07;;;;;;;6.80;2.57;;;7.70;98.50;;;;;;6214035;23;20287;-72
2023/05/18 02:57:32;;;;;;;10.43;2.97;;;7.60;98.60;;;;;;6214267;23;20028;-71
2023/05/18 02:59:58;;;;;;;6.53;2.57;;;7.60;98.60;;;;;;6241014;23;20020;-71
2023/05/18 03:02:24;;;;;;;6.00;2.77;;;7.60;98.70;;;;;;6240503;23;20296;-72
2023/05/18 03:04:56;;;;;;;9.97;3.20;;;7.60;98.80;;;;;;6241196;23;20078;-71
2023/05/18 03:07:22;;;;;;;10.50;3.20;;;7.60;98.90;;;;;;6214027;23;20083;-71
2023/05/18 03:09:48;;;;;;;7.53;3.30;;;7.60;99.00;;;;;;6241161;23;20027;-71
2023/05/18 03:12:13;;;;;;;10.37;3.67;;;7.60;99.10;;;;;;6240715;23;20414;-71
2023/05/18 03:14:39;;;;;;;9.27;3.87;;;7.50;99.10;;;;;;6241093;23;20413;-72
2023/05/18 03:17:04;;;;;;;10.87;3.13;;;7.60;99.20;;;;;;6213310;23;20042;-72
2023/05/18 03:19:33;;;;;;;11.27;3.10;;;7.50;99.30;;;;;;6241014;23;20341;-71
2023/05/18 03:22:00;;;;;;;7.47;3.47;;;7.50;99.40;;;;;;6214069;23;20000;-71
2023/05/18 03:24:28;;;;;;;11.13;3.23;;;7.50;99.40;;;;;;6240566;23;20473;-71
2023/05/18 03:26:55;;;;;;;8.87;3.70;;;7.50;99.50;;;;;;6241074;23;20008;-71
2023/05/18 03:29:21;;;;;;;9.03;3.70;;;7.50;99.50;;;;;;6240470;23;20000;-71
2023/05/18 03:31:47;;;;;;;7.93;2.83;;;7.50;99.60;;;;;;6240469;23;20011;-71
2023/05/18 03:34:13;;;;;;;8.20;3.70;;;7.50;99.70;;;;;;6240247;23;20004;-71
2023/05/18 03:36:38;;;;;;;8.50;2.47;;;7.40;99.70;;;;;;6240834;23;20024;-71
2023/05/18 03:39:08;;;;;;;9.40;3.30;;;7.40;99.90;;;;;;6240562;23;20084;-71
2023/05/18 03:41:34;;;;;;;10.00;3.07;;;7.40;99.80;;;;;;6240674;23;20058;-71
2023/05/18 03:44:00;;;;;;;8.37;2.70;;;7.40;99.90;;;;;;6240762;23;20015;-72
2023/05/18 03:46:26;;;;;;;13.77;3.67;;;7.40;99.90;;;;;;6239939;23;20415;-72
2023/05/18 03:48:53;;;;;;;8.30;2.93;;;7.40;99.90;;;;;;6240684;23;19996;-72
2023/05/18 03:51:19;;;;;;;8.60;2.57;;;7.40;99.90;;;;;;6240345;23;20106;-72
2023/05/18 03:53:45;;;;;;;8.23;2.93;;;7.40;99.90;;;;;;6213782;23;20137;-72
2023/05/18 03:56:12;;;;;;;15.30;3.77;;;7.40;99.90;;;;;;6214121;23;20008;-72
2023/05/18 03:58:38;;;;;;;9.07;2.83;;;7.50;99.90;;;;;;6215480;23;20012;-72
2023/05/18 04:01:04;;;;;;;8.63;4.17;;;7.50;99.90;;;;;;6242643;23;20745;-72
2023/05/18 04:03:30;;;;;;;11.83;3.20;;;7.50;99.90;;;;;;6242599;23;20003;-72
2023/05/18 04:05:55;;;;;;;12.17;3.60;;;7.50;99.90;;;;;;6242661;23;20178;-72
2023/05/18 04:08:24;;;;;;;9.10;3.13;;;7.50;99.90;;;;;;6242525;23;20366;-72
2023/05/18 04:10:50;;;;;;;9.93;3.20;;;7.50;99.90;;;;;;6242861;23;20348;-72
2023/05/18 04:13:16;;;;;;;9.33;2.77;;;7.60;99.90;;;;;;6240071;23;20000;-72
2023/05/18 04:15:42;;;;;;;9.07;3.87;;;7.60;99.90;;;;;;6242341;23;20103;-72
2023/05/18 04:18:09;;;;;;;11.20;3.10;;;7.60;99.90;;;;;;6240899;23;20020;-72
2023/05/18 04:20:36;;;;;;;10.97;3.33;;;7.60;99.90;;;;;;6242390;23;20032;-72
2023/05/18 04:23:04;;;;;;;6.60;2.83;;;7.60;99.90;;;;;;6215591;23;20008;-72
2023/05/18 04:25:30;;;;;;;7.60;3.43;;;7.70;99.90;;;;;;6242025;23;20043;-73
2023/05/18 04:27:56;;;;;;;11.37;3.73;;;7.70;99.90;;;;;;6214855;23;20000;-73
2023/05/18 04:30:22;;;;;;;10.57;2.70;;;7.80;99.90;;;;;;6215488;23;20126;-72
2023/05/18 04:32:48;;;;;;;9.27;2.77;;;7.80;99.90;;;;;;6242693;23;20072;-72
2023/05/18 04:35:14;;;;;;;11.13;3.43;;;7.80;99.90;;;;;;6241864;23;20043;-72
2023/05/18 04:37:40;;;;;;;8.03;2.97;;;7.90;99.90;;;;;;6242849;23;20000;-72
2023/05/18 04:40:12;;;;;;;11.50;3.47;;;7.90;99.90;;;;;;6242064;23;20111;-72
2023/05/18 04:42:46;;;;;;;10.00;2.87;;;8.00;99.90;;;;;;6242268;23;20068;-72
2023/05/18 04:45:16;;;;;;;11.03;3.33;;;8.00;99.90;;;;;;6214800;23;20008;-72
2023/05/18 04:47:45;;;;;;;10.80;2.13;;;8.10;99.90;;;;;;6242669;23;20004;-72
2023/05/18 04:50:12;;;;;;;10.70;2.70;;;8.20;99.80;;;;;;6214976;23;20016;-72
2023/05/18 04:52:40;;;;;;;11.07;2.83;;;8.20;99.50;;;;;;6242530;23;20005;-72
2023/05/18 04:55:09;;;;;;;6.63;3.13;;;8.20;99.40;;;;;;6241857;23;20489;-72
2023/05/18 04:57:35;;;;;;;8.50;3.30;;;8.30;99.40;;;;;;6241743;23;20111;-72
2023/05/18 05:00:02;;;;;;;10.80;3.03;;;8.30;99.10;;;;;;6242188;23;20008;-72
2023/05/18 05:02:28;;;;;;;13.67;2.57;;;8.30;99.00;;;;;;6215381;23;20012;-72
2023/05/18 05:04:53;;;;;;;9.90;2.73;;;8.40;98.90;;;;;;6242481;23;20085;-72
2023/05/18 05:07:20;;;;;;;11.83;2.57;;;8.50;98.90;;;;;;6241629;23;20008;-73
2023/05/18 05:09:45;;;;;;;11.23;2.90;;;8.50;98.80;;;;;;6242395;23;19996;-73
2023/05/18 05:12:11;;;;;;;16.23;3.33;;;8.50;98.50;;;;;;6241176;23;20000;-72
2023/05/18 05:14:36;;;;;;;9.87;2.87;;;8.60;98.70;;;;;;6242422;23;20030;-72
2023/05/18 05:17:02;;;;;;;11.43;3.10;;;8.60;98.30;;;;;;6215259;23;20012;-72
2023/05/18 05:19:27;;;;;;;6.47;1.90;;;8.70;98.20;;;;;;6215141;23;20019;-72
2023/05/18 05:21:53;;;;;;;11.07;2.47;;;8.70;98.10;;;;;;6242485;23;20075;-74
2023/05/18 05:24:18;;;;;;;13.43;2.73;;;8.80;97.90;;;;;;6241168;23;20039;-72
2023/05/18 05:26:44;;;;;;;9.63;2.60;;;8.80;97.70;;;;;;6241485;23;20004;-72
2023/05/18 05:29:09;;;;;;;13.97;2.53;;;8.80;97.50;;;;;;6241952;23;20008;-72
2023/05/18 05:31:35;;;;;;;17.95;2.65;;;8.90;97.50;;;;;;6242220;23;20001;-72
2023/05/18 05:34:00;;;;;;;11.80;2.30;;;8.90;97.20;;;;;;6215240;23;20004;-72
2023/05/18 05:36:26;;;;;;;7.57;2.47;;;9.00;97.00;;;;;;6241973;23;20075;-72
2023/05/18 05:38:52;;;;;;;7.77;1.93;;;9.00;96.70;;;;;;6242318;23;20014;-72
2023/05/18 05:41:19;;;;;;;7.53;2.40;;;9.00;96.50;;;;;;6241182;23;20350;-72
2023/05/18 05:43:44;;;;;;;11.07;2.23;;;9.00;96.30;;;;;;6242327;23;20381;-73
2023/05/18 05:46:10;;;;;;;6.07;1.80;;;9.00;96.50;;;;;;6215001;23;20035;-72
2023/05/18 05:48:35;;;;;;;6.43;2.17;;;9.10;96.10;;;;;;6215481;23;20027;-72
2023/05/18 05:51:01;;;;;;;10.33;2.03;;;9.10;96.00;;;;;;6241952;23;19997;-73
2023/05/18 05:53:28;;;;;;;5.68;1.75;;;9.10;95.80;;;;;;6241787;23;20000;-73
2023/05/18 05:55:54;;;;;;;9.97;2.10;;;9.10;95.70;;;;;;6241886;23;20007;-71
2023/05/18 05:58:19;;;;;;;7.20;1.70;;;9.10;95.60;;;;;;6241849;23;20001;-72
2023/05/18 06:00:45;;;;;;;10.57;2.20;;;9.10;95.60;;;;;;6242577;23;20000;-72
2023/05/18 06:03:11;;;;;;;6.30;1.90;;;9.10;95.30;;;;;;6241753;23;20083;-72
2023/05/18 06:05:36;;;;;;;9.23;2.40;;;9.20;95.30;;;;;;6242313;23;20082;-72
2023/05/18 06:08:02;;;;;;;8.75;2.00;;;9.20;95.30;;;;;;6241794;23;20007;-72
2023/05/18 06:10:28;;;;;;;13.70;2.83;;;9.30;95.20;;;;;;6241284;23;20010;-71
2023/05/18 06:12:53;;;;;;;9.00;2.60;;;9.40;95.10;;;;;;6241517;23;20000;-72
2023/05/18 06:15:19;;;;;;;7.63;1.90;;;9.40;95.10;;;;;;6239439;23;20004;-72
2023/05/18 06:17:44;;;;;;;8.43;2.17;;;9.50;95.10;;;;;;6241386;23;20004;-71
2023/05/18 06:20:12;;;;;;;10.75;1.80;;;9.60;95.10;;;;;;6239633;23;20079;-72
2023/05/18 06:22:38;;;;;;;11.00;2.22;;;9.60;94.90;;;;;;6215002;23;20066;-73
2023/05/18 06:25:04;;;;;;;10.23;1.67;;;9.60;94.80;;;;;;6213621;23;20434;-73
2023/05/18 06:27:29;;;;;;;9.60;2.28;;;9.70;94.80;;;;;;6241562;23;20005;-72
2023/05/18 06:29:55;;;;;;;11.57;2.88;;;9.80;94.70;;;;;;6241853;23;19996;-73
2023/05/18 06:32:20;;;;;;;9.63;1.80;;;9.80;94.50;;;;;;6241152;23;20008;-73
2023/05/18 06:34:46;;;;;;;9.82;1.83;;;9.80;94.50;;;;;;6241971;23;20441;-72
2023/05/18 06:37:12;;;;;;;12.75;2.88;;;9.90;94.50;;;;;;6214141;23;20054;-72
2023/05/18 06:39:38;;;;;;;8.60;2.33;;;10.00;94.40;;;;;;6241382;23;20576;-72
2023/05/18 06:42:04;;;;;;;10.27;1.85;;;10.00;94.10;;;;;;6241481;23;20425;-71
2023/05/18 06:44:30;;;;;;;9.73;2.30;;;10.00;94.00;;;;;;6241421;23;20008;-73
2023/05/18 06:46:55;;;;;;;7.68;1.67;;;10.00;93.90;;;;;;6241594;23;20084;-74
2023/05/18 06:49:21;;;;;;;6.20;1.90;;;10.00;93.60;;;;;;6240912;23;20037;-73
2023/05/18 06:51:47;;;;;;;8.75;1.98;;;10.10;93.80;;;;;;6241516;23;20004;-73
2023/05/18 06:54:12;;;;;;;5.78;1.98;;;10.10;94.00;;;;;;6213264;23;20007;-72
2023/05/18 06:56:38;;;;;;;11.40;2.72;;;10.20;93.90;;;;;;6241373;23;20414;-73
2023/05/18 06:59:04;;;;;;;11.10;2.33;;;10.30;93.90;;;;;;6241113;23;20307;-72
2023/05/18 07:01:30;;;;;;;12.07;2.50;;;10.30;93.90;;;;;;6214335;23;20135;-72
2023/05/18 07:03:55;;;;;;;9.03;2.20;;;10.40;94.00;;;;;;6214577;23;20004;-72
2023/05/18 07:06:21;;;;;;;11.27;2.05;;;10.50;93.90;;;;;;6240576;23;20098;-73
2023/05/18 07:08:47;;;;;;;10.70;2.50;;;10.50;93.80;;;;;;6240831;23;20035;-72
2023/05/18 07:11:13;;;;;;;9.35;1.88;;;10.60;93.60;;;;;;6240551;23;20000;-72
2023/05/18 07:13:39;;;;;;;10.93;2.72;;;10.60;93.20;;;;;;6241458;23;20125;-72
2023/05/18 07:16:05;;;;;;;10.10;2.80;;;10.60;93.10;;;;;;6241195;23;20008;-71
2023/05/18 07:18:30;;;;;;;9.15;2.25;;;10.60;93.00;;;;;;6240897;23;20020;-72
2023/05/18 07:20:56;;;;;;;5.93;2.38;;;10.60;92.90;;;;;;6214137;23;20433;-73
2023/05/18 07:23:22;;;;;;;9.48;2.50;;;10.60;93.20;;;;;;6239969;23;20004;-72
2023/05/18 07:25:48;;;;;;;10.15;1.92;;;10.70;93.40;;;;;;6213835;23;20024;-73
2023/05/18 07:28:13;;;;;;;7.35;2.13;;;10.80;93.30;;;;;;6240636;23;20004;-72
2023/05/18 07:30:39;;;;;;;7.80;2.30;;;10.90;92.90;;;;;;6240393;23;20023;-72
2023/05/18 07:33:04;;;;;;;9.30;2.65;;;11.00;93.00;;;;;;6240953;23;20075;-75
2023/05/18 07:35:30;;;;;;;8.20;2.67;;;11.10;92.80;;;;;;6240066;23;20131;-74
2023/05/18 07:37:56;;;;;;;12.77;2.95;;;11.20;92.60;;;;;;6240205;23;19996;-75
2023/05/18 07:40:21;;;;;;;7.90;2.45;;;11.30;92.40;;;;;;6240050;23;20000;-78
2023/05/18 07:42:47;;;;;;;9.50;2.25;;;11.40;92.30;;;;;;6240858;23;20048;-74
2023/05/18 07:45:13;;;;;;;9.70;2.10;;;11.60;92.50;;;;;;6240322;23;20000;-75
2023/05/18 07:47:38;;;;;;;6.40;1.95;;;11.70;92.20;;;;;;6240566;23;20053;-75
2023/05/18 07:50:05;;;;;;;7.60;1.83;;;11.80;91.90;;;;;;6240529;23;20046;-75
2023/05/18 07:52:30;;;;;;;9.80;2.70;;;11.90;91.80;;;;;;6239691;23;20008;-74
2023/05/18 07:54:56;;;;;;;7.30;2.60;;;11.90;91.70;;;;;;6240820;23;20089;-75
2023/05/18 07:57:23;;;;;;;12.95;2.53;;;12.10;91.50;;;;;;6239976;23;20010;-76
2023/05/18 07:59:49;;;;;;;7.60;1.63;;;12.10;91.20;;;;;;6240390;23;20000;-78
2023/05/18 08:02:18;;;;;;;6.30;2.00;;;12.20;91.20;;;;;;6213309;23;20505;-72
2023/05/18 08:04:44;;;;;;;10.35;2.72;;;12.30;90.90;;;;;;6240654;23;20115;-72
2023/05/18 08:07:11;;;;;;;8.93;2.88;;;12.50;90.70;;;;;;6213037;23;20015;-72
2023/05/18 08:09:37;;;;;;;5.90;1.48;;;12.60;90.60;;;;;;6213377;23;20007;-73
2023/05/18 08:12:03;;;;;;;7.43;2.03;;;12.80;90.60;;;;;;6213710;23;20329;-73
2023/05/18 08:14:29;;;;;;;9.70;3.33;;;13.00;90.40;;;;;;6212806;23;20008;-73
2023/05/18 08:16:54;;;;;;;6.88;2.45;;;13.20;90.00;;;;;;6240669;23;20007;-72
2023/05/18 08:19:20;;;;;;;7.95;2.25;;;13.40;89.90;;;;;;6239670;23;20022;-73
2023/05/18 08:21:46;;;;;;;10.75;1.95;;;13.60;88.00;;;;;;6239959;23;20080;-73
2023/05/18 08:24:11;;;;;;;11.10;2.22;;;13.60;87.40;;;;;;6239853;23;20007;-72
2023/05/18 08:26:37;;;;;;;7.70;2.00;;;13.70;87.80;;;;;;6240153;23;20030;-73
2023/05/18 08:29:08;;;;;;;8.30;2.42;;;13.80;86.70;;;;;;6240626;23;20015;-73
2023/05/18 08:31:37;;;;;;;10.75;2.40;;;13.80;85.40;;;;;;6239844;23;20001;-72
2023/05/18 08:34:04;;;;;;;8.32;3.28;;;13.90;85.00;;;;;;6240389;23;19997;-72
2023/05/18 08:36:32;;;;;;;14.35;2.40;;;14.00;84.10;;;;;;6239966;23;20374;-72
2023/05/18 08:38:57;;;;;;;9.35;1.83;;;14.00;82.90;;;;;;6240284;23;20008;-73
2023/05/18 08:41:29;;;;;;;8.55;1.92;;;14.00;82.70;;;;;;6213205;23;20496;-73
2023/05/18 08:44:08;;;;;;;10.32;2.60;;;14.00;83.20;;;;;;6215554;23;20341;-73
2023/05/18 08:46:38;;;;;;;11.60;2.30;;;14.10;82.50;;;;;;6241299;23;20298;-72
2023/05/18 08:49:04;;;;;;;12.85;2.47;;;14.00;81.70;;;;;;6242029;23;20564;-72
2023/05/18 08:51:33;;;;;;;10.75;2.65;;;13.90;81.30;;;;;;6241718;23;20590;-72
2023/05/18 08:54:00;;;;;;;6.53;1.63;;;14.00;81.50;;;;;;6242160;23;20004;-73
2023/05/18 08:56:26;;;;;;;10.93;2.00;;;14.00;80.50;;;;;;6241615;23;20138;-73
2023/05/18 08:58:55;;;;;;;10.18;3.13;;;14.00;80.80;;;;;;6243045;23;20487;-71
2023/05/18 09:01:26;;;;;;;7.93;1.85;;;14.00;80.90;;;;;;6215501;23;20009;-73
2023/05/18 09:03:52;;;;;;;7.03;2.42;;;14.00;80.10;;;;;;6214634;23;20000;-73
2023/05/18 09:06:20;;;;;;;7.63;1.98;;;14.00;80.50;;;;;;6241530;23;20047;-73
2023/05/18 09:08:46;;;;;;;9.27;2.22;;;14.10;81.10;;;;;;6242520;23;20011;-72
2023/05/18 09:11:12;;;;;;;13.57;3.08;;;14.20;80.90;;;;;;6241618;23;19993;-72
2023/05/18 09:13:38;;;;;;;10.07;2.20;;;14.30;80.80;;;;;;6242435;23;20000;-73
2023/05/18 09:16:06;;;;;;;10.15;2.70;;;14.20;80.10;;;;;;6242940;23;20011;-72
2023/05/18 09:18:32;;;;;;;9.00;2.25;;;14.10;80.80;;;;;;6241539;23;20122;-73
2023/05/18 09:20:57;;;;;;;8.38;2.83;;;14.20;80.90;;;;;;6241942;23;20060;-73
2023/05/18 09:23:23;;;;;;;7.55;2.45;;;14.20;80.30;;;;;;6241309;23;20389;-73
2023/05/18 09:25:51;;;;;;;7.18;2.65;;;14.10;79.80;;;;;;6241501;23;20096;-72
2023/05/18 09:28:35;;;;;;;8.73;1.98;;;14.10;79.80;;;;;;6214580;23;20020;-72
2023/05/18 09:31:02;;;;;;;8.73;3.42;;;14.10;79.70;;;;;;6241417;23;20105;-72
2023/05/18 09:33:35;;;;;;;5.32;1.85;;;14.00;79.30;;;;;;6240565;23;20027;-72
2023/05/18 09:36:08;;;;;;;7.53;2.72;;;14.10;79.50;;;;;;6240698;23;20000;-72
2023/05/18 09:38:42;;;;;;;10.38;2.45;;;14.10;79.70;;;;;;6240994;23;20336;-72
2023/05/18 09:41:09;;;;;;;;;;;14.10;79.70;;;;;;6242011;23;20006;-72
2023/05/18 09:43:35;;;;;;;5.65;2.13;;;14.10;80.10;;;;;;6241078;23;19899;-72
2023/05/18 09:46:06;;;;;;;7.10;2.47;;;14.20;79.90;;;;;;6241540;23;20073;-72
2023/05/18 09:48:33;;;;;;;8.75;2.53;;;14.20;79.50;;;;;;6240722;23;20477;-72
2023/05/18 09:50:59;;;;;;;8.27;2.25;;;14.30;79.10;;;;;;6240981;23;20097;-72
2023/05/18 09:53:24;;;;;;;7.15;2.10;;;14.30;78.20;;;;;;6213001;23;20020;-72
2023/05/18 09:55:50;;;;;;;10.43;2.70;;;14.30;77.70;;;;;;6240915;23;19997;-73
2023/05/18 09:58:16;;;;;;;12.93;3.08;;;14.30;78.30;;;;;;6214088;23;20008;-73
2023/05/18 10:00:48;;;;;;;12.52;2.78;;;14.40;79.00;;;;;;6240117;23;20023;-73
2023/05/18 10:03:21;;;;;;;7.85;2.88;;;14.40;78.20;;;;;;6240520;23;20000;-72
2023/05/18 10:05:46;;;;;;;6.73;2.53;;;14.40;79.00;;;;;;6241282;23;20414;-72
2023/05/18 10:08:16;;;;;;;10.27;2.55;;;14.50;78.90;;;;;;6240927;23;20011;-73
2023/05/18 10:10:45;;;;;;;6.55;2.70;;;14.50;78.40;;;;;;6240921;23;19997;-73
2023/05/18 10:13:17;;;;;;;7.32;2.38;;;14.50;77.60;;;;;;6240900;23;20094;-72
2023/05/18 10:15:52;;;;;;;7.93;2.70;;;14.50;77.90;;;;;;6239296;23;19996;-75
2023/05/18 10:18:26;;;;;;;9.02;2.85;;;14.50;77.80;;;;;;6213559;23;20008;-74
2023/05/18 10:20:54;;;;;;;7.78;2.25;;;14.50;77.70;;;;;;6240640;23;19996;-74
2023/05/18 10:23:22;;;;;;;10.25;2.72;;;14.50;77.40;;;;;;6213282;23;20004;-73
2023/05/18 10:25:49;;;;;;;6.20;3.03;;;14.50;76.90;;;;;;6240864;23;20024;-74
2023/05/18 10:28:24;;;;;;;12.23;3.28;;;14.50;77.50;;;;;;6240650;23;20067;-73
2023/05/18 10:30:52;;;;;;;6.00;3.05;;;14.50;77.60;;;;;;6240695;23;20304;-73
2023/05/18 10:33:19;;;;;;;7.25;2.70;;;14.60;77.90;;;;;;6241112;23;20072;-73
2023/05/18 10:35:48;;;;;;;7.22;2.40;;;14.60;77.60;;;;;;6241030;23;20019;-73
2023/05/18 10:38:19;;;;;;;6.88;3.10;;;14.70;77.90;;;;;;6239596;23;20024;-74
2023/05/18 10:40:48;;;;;;;9.80;2.85;;;14.70;78.40;;;;;;6240895;23;20006;-73
2023/05/18 10:43:18;;;;;;;10.45;2.42;;;14.70;77.90;;;;;;6240356;23;20075;-73
2023/05/18 10:45:46;;;;;;;8.63;3.17;;;14.80;78.10;;;;;;6237758;23;19996;-73
2023/05/18 10:48:13;;;;;;;12.32;2.35;;;14.90;78.10;;;;;;6240602;23;20018;-73
2023/05/18 10:50:40;;;;;;;11.73;2.80;;;14.90;77.30;;;;;;6240597;23;20072;-72
2023/05/18 10:53:05;;;;;;;10.38;2.75;;;14.80;76.50;;;;;;6240831;23;19996;-74
2023/05/18 10:55:31;;;;;;;10.30;3.22;;;14.80;76.60;;;;;;6240542;23;20069;-73
2023/05/18 10:58:04;;;;;;;9.88;2.55;;;14.80;76.20;;;;;;6240272;23;20081;-73
2023/05/18 11:00:34;;;;;;;7.68;3.20;;;14.70;76.50;;;;;;6239433;23;20031;-73
2023/05/18 11:03:00;;;;;;;11.45;3.10;;;14.70;76.50;;;;;;6213660;23;20047;-73
2023/05/18 11:05:26;;;;;;;8.32;3.28;;;14.70;76.70;;;;;;6239951;23;20024;-73
2023/05/18 11:08:04;;;;;;;11.77;2.97;;;14.80;76.90;;;;;;6240815;23;20030;-73
2023/05/18 11:10:34;;;;;;;10.15;2.42;;;14.90;76.40;;;;;;6240039;23;20000;-73
2023/05/18 11:13:01;;;;;;;7.10;2.53;;;15.00;76.60;;;;;;6240928;23;20000;-73
2023/05/18 11:15:54;;;;;;;12.02;3.13;;;15.10;75.80;;;;;;6240094;23;20123;-73
2023/05/18 11:18:48;;;;;;;10.90;2.57;;;15.20;75.00;;;;;;6213899;23;20008;-73
2023/05/18 11:21:40;;;;;;;8.57;2.83;;;15.30;76.70;;;;;;6240388;23;20007;-73
2023/05/18 11:24:31;;;;;;;6.47;2.55;;;15.30;76.20;;;;;;6197523;23;20000;-73
2023/05/18 11:27:06;;;;;;;8.45;2.28;;;15.50;75.50;;;;;;6240677;23;20005;-73
2023/05/18 11:29:39;;;;;;;9.18;3.20;;;15.50;75.20;;;;;;6239503;23;20314;-73
2023/05/18 11:32:28;;;;;;;9.37;3.07;;;15.60;73.70;;;;;;6240574;23;20004;-73
2023/05/18 11:34:54;;;;;;;8.50;2.67;;;15.60;73.80;;;;;;6240644;23;20218;-73
2023/05/18 11:37:38;;;;;;;3.92;1.83;;;15.60;73.70;;;;;;6240315;23;20008;-73
2023/05/18 11:40:08;;;;;;;7.15;1.90;;;15.60;74.20;;;;;;6213617;23;20004;-73
2023/05/18 11:42:35;;;;;;;6.28;1.92;;;15.60;73.60;;;;;;6238980;23;20008;-73
2023/05/18 11:45:11;;;;;;;13.10;2.83;;;15.50;71.90;;;;;;6240680;23;20321;-71
2023/05/18 11:47:39;;;;;;;6.93;2.85;;;15.40;73.20;;;;;;6240010;23;20047;-74
2023/05/18 11:50:10;;;;;;;8.48;3.10;;;15.50;72.30;;;;;;6238596;23;19996;-73
2023/05/18 11:52:51;;;;;;;8.70;3.00;;;15.50;72.10;;;;;;6239057;23;20003;-73
2023/05/18 11:55:19;;;;;;;9.90;2.75;;;15.40;72.90;;;;;;6239576;23;20279;-73
2023/05/18 11:57:49;;;;;;;5.95;2.17;;;15.40;72.80;;;;;;6239969;23;20007;-73
2023/05/18 12:00:15;;;;;;;6.65;2.65;;;15.40;73.00;;;;;;6240248;23;20008;-73
2023/05/18 12:02:43;;;;;;;10.48;3.30;;;15.50;72.60;;;;;;6240053;23;19996;-73
2023/05/18 12:05:09;;;;;;;7.85;2.70;;;15.60;72.40;;;;;;6240727;23;20299;-74
2023/05/18 12:07:36;;;;;;;8.55;2.17;;;15.60;72.70;;;;;;6239779;23;20091;-73
2023/05/18 12:10:05;;;;;;;7.25;2.80;;;15.70;72.70;;;;;;6240511;23;20080;-73
2023/05/18 12:12:32;;;;;;;8.68;2.95;;;15.70;72.40;;;;;;6239197;23;20001;-72
2023/05/18 12:15:10;;;;;;;6.03;2.90;;;15.80;72.10;;;;;;6240383;23;20063;-72
2023/05/18 12:17:49;;;;;;;3.90;2.22;;;15.80;71.50;;;;;;6240600;23;20020;-72
2023/05/18 12:20:16;;;;;;;7.20;3.45;;;15.80;70.10;;;;;;6242523;23;20139;-73
2023/05/18 12:22:44;;;;;;;10.32;2.80;;;15.80;71.00;;;;;;6215189;23;20342;-73
2023/05/18 12:25:11;;;;;;;7.35;2.65;;;15.70;71.30;;;;;;6242136;23;20027;-73
2023/05/18 12:27:42;;;;;;;9.27;3.35;;;15.80;71.70;;;;;;6241459;23;20000;-73
2023/05/18 12:30:12;;;;;;;7.85;2.63;;;15.90;71.50;;;;;;6242215;23;20012;-73
2023/05/18 12:32:42;;;;;;;9.02;3.08;;;16.00;71.20;;;;;;6242615;23;20023;-73
2023/05/18 12:35:08;;;;;;;5.00;2.67;;;16.10;70.70;;;;;;6242658;23;20003;-72
2023/05/18 12:37:40;;;;;;;7.47;2.92;;;16.30;71.10;;;;;;6241338;23;20008;-73
2023/05/18 12:40:06;;;;;;;6.28;3.40;;;16.40;71.70;;;;;;6242225;23;20000;-72
2023/05/18 12:42:32;;;;;;;9.75;3.10;;;16.60;71.90;;;;;;6241047;23;20004;-73
2023/05/18 12:44:57;;;;;;;6.00;2.85;;;16.70;71.60;;;;;;6241878;23;20422;-73
2023/05/18 12:47:23;;;;;;;5.88;2.20;;;16.80;70.10;;;;;;6214110;23;20004;-72
2023/05/18 12:49:49;;;;;;;6.07;2.55;;;16.90;69.60;;;;;;6242092;23;19996;-73
2023/05/18 12:52:15;;;;;;;6.82;2.53;;;17.00;69.50;;;;;;6241031;23;20071;-73